Aérodrome :
LOGIN :

S'inscrire | Disclaimer

   EN    FR    IT 

 










Légende :    VFR   VFR Marginal   IFR   IFR Intensif   IFR Très Intensif
Visi : 
Plafond : 
>= 8 km
>= 3000ft
5 à 8 km
1000 à 3000 ft
1500m à 5 km
500 à 1000 ft
800 à 1500m
200 à 500 ft
< 800m
< 200 ft
Symboles :   Orages  Brouillard  Fortes neiges  Fortes précipitations  Vent > 20 kt
SIGMETs :   Divers  Orages  Givrage  Turbulence  Onde Orograph.  Cendres Volcan.






- Altitude de l'aérodrome : 49 ft
- Code IATA : GLZ


EHGR - Gilze-Rijen Airbase

DERNIER METAR :
  • 091825Z AUTO 00000KT 0450 FZFG NCD M03/M03 Q1007 RED

METARs EXPIRÉS :
  • 091757Z AUTO 16002KT 1000 BR NCD M03/M03 Q1006 AMB
  • 091743Z AUTO VRB01KT 1500 BR NCD M02/M02 Q1006 AMB
  • 091725Z AUTO 17002KT 2000 BR NCD M02/M02 Q1006 YLO
  • 091716Z AUTO 16002KT 2200 BR NCD M02/M02 Q1006 YLO
  • 091656Z AUTO VRB01KT 1000 BR SCT014 M02/M02 Q1006 AMB
  • 091655Z AUTO VRB01KT 0600 FZFG SCT014 M02/M02 Q1006 RED
  • 091647Z AUTO 00000KT 2500 BR FEW013 M01/M02 Q1006 YLO
  • 091636Z AUTO 17001KT 1000 BR BKN013 M01/M02 Q1006 AMB
  • 091555Z AUTO 27001KT 3000 BR FEW014 M00/M01 Q1006 YLO
  • 091530Z AUTO 20001KT 2700 BR NCD 01/M01 Q1006 YLO

TAF TAF EHGR
Valide du 09 à 10h jusqu'au 09 à 22h UTC


090935Z 0910/0922 VRB02KT 0600 FZFG VV001
TEMPO 0910/0912 3000 BR BKN008
BECMG 0911/0913 6000 NSW BKN010
PROB30 0912/0922 BKN016
PROB40 0913/0916 3000 BR
BECMG 0916/0919 3000 BR
PROB40 0920/0922 0800 FZFG



MET'MAP, la Météo Aéronautique d'un coup d'oeil ! - Copyright ORBIFLY Décembre 2007 - Disclaimer

ORBIFLY MET'MAP TEAM :

Programmation & Développement : Alexandra Zaïnal
Sur une idée originale de : Baudouin d'Aumeries
Soutien technique & logistique : Manuel Goepfert
Assistance : Marc-Olivier Méhu




SOURCES & CREDITS :

   NOAA